createdAt,value
2023-04-20T00:01:31.231Z,4.63
2023-04-20T00:03:58.179Z,4.64
2023-04-20T00:06:29.990Z,4.83
2023-04-20T00:08:56.951Z,4.97
2023-04-20T00:11:23.820Z,5.08
2023-04-20T00:13:50.600Z,5.00
2023-04-20T00:16:17.515Z,5.18
2023-04-20T00:18:47.246Z,5.21
2023-04-20T00:21:14.073Z,5.07
2023-04-20T00:23:41.578Z,5.25
2023-04-20T00:26:09.873Z,5.22
2023-04-20T00:28:36.597Z,5.21
2023-04-20T00:31:03.581Z,5.17
2023-04-20T00:33:30.595Z,5.12
2023-04-20T00:35:57.470Z,5.11
2023-04-20T00:38:24.242Z,5.19
2023-04-20T00:40:54.327Z,5.04
2023-04-20T00:43:22.434Z,5.05
2023-04-20T00:45:49.276Z,5.05
2023-04-20T00:48:16.249Z,5.19
2023-04-20T00:50:43.104Z,5.20
2023-04-20T00:53:10.840Z,5.22
2023-04-20T00:55:39.350Z,5.25
2023-04-20T00:58:06.969Z,5.23
2023-04-20T01:00:34.371Z,5.19
2023-04-20T01:03:01.404Z,5.19
2023-04-20T01:05:28.454Z,5.26
2023-04-20T01:07:55.275Z,5.12
2023-04-20T01:10:22.203Z,5.34
2023-04-20T01:12:48.986Z,5.18
2023-04-20T01:15:16.001Z,5.17
2023-04-20T01:17:43.986Z,5.16
2023-04-20T01:20:12.936Z,5.12
2023-04-20T01:22:48.236Z,5.26
2023-04-20T01:25:15.146Z,5.15
2023-04-20T01:27:42.373Z,5.08
2023-04-20T01:30:09.993Z,5.03
2023-04-20T01:32:36.919Z,4.99
2023-04-20T01:35:04.514Z,4.97
2023-04-20T01:37:31.540Z,4.97
2023-04-20T01:39:58.624Z,5.10
2023-04-20T01:42:25.526Z,5.13
2023-04-20T01:44:52.329Z,5.09
2023-04-20T01:47:19.521Z,5.17
2023-04-20T01:49:46.505Z,5.18
2023-04-20T01:52:13.469Z,5.01
2023-04-20T01:54:40.383Z,5.04
2023-04-20T01:57:07.495Z,5.10
2023-04-20T01:59:34.258Z,5.13
2023-04-20T02:02:01.136Z,5.14
2023-04-20T02:04:28.334Z,5.08
2023-04-20T02:06:55.147Z,5.13
2023-04-20T02:09:22.261Z,5.13
2023-04-20T02:11:49.145Z,5.09
2023-04-20T02:14:15.935Z,4.98
2023-04-20T02:16:43.073Z,5.01
2023-04-20T02:19:10.252Z,4.96
2023-04-20T02:21:37.035Z,5.04
2023-04-20T02:24:04.192Z,5.07
2023-04-20T02:26:31.157Z,5.18
2023-04-20T02:28:57.993Z,5.10
2023-04-20T02:31:24.838Z,5.13
2023-04-20T02:33:52.280Z,5.07
2023-04-20T02:36:19.121Z,5.14
2023-04-20T02:38:46.319Z,5.08
2023-04-20T02:41:13.103Z,5.10
2023-04-20T02:43:40.452Z,5.06
2023-04-20T02:46:07.917Z,4.99
2023-04-20T02:48:34.864Z,5.04
2023-04-20T02:51:01.624Z,5.06
2023-04-20T02:53:28.484Z,5.17
2023-04-20T02:55:55.258Z,5.13
2023-04-20T02:58:22.051Z,4.99
2023-04-20T03:00:49.279Z,5.07
2023-04-20T03:03:16.193Z,4.97
2023-04-20T03:05:43.935Z,4.83
2023-04-20T03:08:10.940Z,4.98
2023-04-20T03:10:37.775Z,4.93
2023-04-20T03:13:04.699Z,4.91
2023-04-20T03:15:31.486Z,5.02
2023-04-20T03:17:58.359Z,4.94
2023-04-20T03:20:25.181Z,4.95
2023-04-20T03:22:51.995Z,4.98
2023-04-20T03:25:19.204Z,4.86
2023-04-20T03:27:47.633Z,4.86
2023-04-20T03:30:15.081Z,4.87
2023-04-20T03:32:45.570Z,4.95
2023-04-20T03:35:12.584Z,4.91
2023-04-20T03:37:39.587Z,4.87
2023-04-20T03:40:08.905Z,4.97
2023-04-20T03:42:35.645Z,4.89
2023-04-20T03:45:02.465Z,4.87
2023-04-20T03:47:29.375Z,4.91
2023-04-20T03:49:56.147Z,4.87
2023-04-20T03:52:22.991Z,4.88
2023-04-20T03:54:49.750Z,4.89
2023-04-20T03:57:16.556Z,4.84
2023-04-20T03:59:43.466Z,4.87
2023-04-20T04:02:13.576Z,4.93
2023-04-20T04:04:41.264Z,4.89
2023-04-20T04:07:08.453Z,4.84
2023-04-20T04:09:35.229Z,4.84
2023-04-20T04:12:02.100Z,4.93
2023-04-20T04:14:30.557Z,4.92
2023-04-20T04:16:57.320Z,4.86
2023-04-20T04:19:24.189Z,4.84
2023-04-20T04:21:50.970Z,4.73
2023-04-20T04:24:17.943Z,4.80
2023-04-20T04:26:46.273Z,4.82
2023-04-20T04:29:13.369Z,4.67
2023-04-20T04:31:40.183Z,4.71
2023-04-20T04:34:07.151Z,4.67
2023-04-20T04:36:34.053Z,4.66
2023-04-20T04:39:00.992Z,4.68
2023-04-20T04:41:27.945Z,4.60
2023-04-20T04:43:54.691Z,4.69
2023-04-20T04:46:21.831Z,4.72
2023-04-20T04:48:48.724Z,4.55
2023-04-20T04:51:15.969Z,4.70
2023-04-20T04:53:45.349Z,4.73
2023-04-20T04:56:13.529Z,4.84
2023-04-20T04:58:40.339Z,4.94
2023-04-20T05:01:07.152Z,4.94
2023-04-20T05:03:34.031Z,4.88
2023-04-20T05:06:01.041Z,4.79
2023-04-20T05:08:28.023Z,4.76
2023-04-20T05:10:54.735Z,4.80
2023-04-20T05:13:21.462Z,4.81
2023-04-20T05:15:48.258Z,4.70
2023-04-20T05:18:15.070Z,4.86
2023-04-20T05:20:41.803Z,4.69
2023-04-20T05:23:08.952Z,4.65
2023-04-20T05:25:35.830Z,4.75
2023-04-20T05:28:02.839Z,4.81
2023-04-20T05:30:29.994Z,4.86
2023-04-20T05:32:59.024Z,4.79
2023-04-20T05:35:25.796Z,4.95
2023-04-20T05:37:52.629Z,4.93
2023-04-20T05:40:19.376Z,4.89
2023-04-20T05:42:46.332Z,5.06
2023-04-20T05:45:13.280Z,5.06
2023-04-20T05:47:40.130Z,4.97
2023-04-20T05:50:07.849Z,5.09
2023-04-20T05:52:34.694Z,4.96
2023-04-20T05:55:01.453Z,5.08
2023-04-20T05:57:28.234Z,5.14
2023-04-20T05:59:56.373Z,5.07
2023-04-20T06:02:23.350Z,5.15
2023-04-20T06:04:50.406Z,5.07
2023-04-20T06:07:17.867Z,5.20
2023-04-20T06:09:44.712Z,5.29
2023-04-20T06:12:14.633Z,5.57
2023-04-20T06:14:41.673Z,5.59
2023-04-20T06:17:08.496Z,5.30
2023-04-20T06:19:35.210Z,5.51
2023-04-20T06:22:07.507Z,5.56
2023-04-20T06:24:35.648Z,5.62
2023-04-20T06:27:03.055Z,5.87
2023-04-20T06:29:29.794Z,5.44
2023-04-20T06:31:56.697Z,5.93
2023-04-20T06:34:23.546Z,5.87
2023-04-20T06:36:50.307Z,6.07
2023-04-20T06:39:18.020Z,5.98
2023-04-20T06:41:47.016Z,6.07
2023-04-20T06:44:13.890Z,6.08
2023-04-20T06:46:40.807Z,6.62
2023-04-20T06:49:07.653Z,6.68
2023-04-20T06:51:34.955Z,6.68
2023-04-20T06:54:01.740Z,6.89
2023-04-20T06:56:28.524Z,6.74
2023-04-20T06:58:55.272Z,6.91
2023-04-20T07:01:22.196Z,6.97
2023-04-20T07:03:49.103Z,7.00
2023-04-20T07:06:20.401Z,6.90
2023-04-20T07:08:47.201Z,7.07
2023-04-20T07:11:17.310Z,7.24
2023-04-20T07:13:44.140Z,7.52
2023-04-20T07:16:11.389Z,7.59
2023-04-20T07:18:38.267Z,7.16
2023-04-20T07:21:05.126Z,7.63
2023-04-20T07:23:31.876Z,7.93
2023-04-20T07:26:00.266Z,7.93
2023-04-20T07:28:27.969Z,7.53
2023-04-20T07:30:54.763Z,7.67
2023-04-20T07:33:21.619Z,8.28
2023-04-20T07:35:52.237Z,8.07
2023-04-20T07:38:19.091Z,7.89
2023-04-20T07:40:45.848Z,8.10
2023-04-20T07:43:13.264Z,7.60
2023-04-20T07:45:41.331Z,8.10
2023-04-20T07:48:09.840Z,8.24
2023-04-20T07:50:36.688Z,8.59
2023-04-20T07:53:03.689Z,9.24
2023-04-20T07:55:30.776Z,8.91
2023-04-20T07:57:58.022Z,9.06
2023-04-20T08:00:25.393Z,9.36
2023-04-20T08:02:52.426Z,9.13
2023-04-20T08:05:19.528Z,9.40
2023-04-20T08:07:46.406Z,9.23
2023-04-20T08:10:13.276Z,8.22
2023-04-20T08:12:40.705Z,8.66
2023-04-20T08:15:08.281Z,9.25
2023-04-20T08:17:35.062Z,9.94
2023-04-20T08:20:02.024Z,9.36
2023-04-20T08:22:30.561Z,10.41
2023-04-20T08:24:57.638Z,10.61
2023-04-20T08:27:25.182Z,10.90
2023-04-20T08:29:52.284Z,11.36
2023-04-20T08:32:22.823Z,11.36
2023-04-20T08:34:53.651Z,10.05
2023-04-20T08:37:20.610Z,9.96
2023-04-20T08:39:47.526Z,10.27
2023-04-20T08:42:14.595Z,10.94
2023-04-20T08:44:41.535Z,9.50
2023-04-20T08:47:11.319Z,10.23
2023-04-20T08:49:39.999Z,9.53
2023-04-20T08:52:10.931Z,9.70
2023-04-20T08:54:46.062Z,11.37
2023-04-20T08:57:19.990Z,10.60
2023-04-20T08:59:46.781Z,10.47
2023-04-20T09:02:14.508Z,10.85
2023-04-20T09:04:41.628Z,11.18
2023-04-20T09:07:21.069Z,11.96
2023-04-20T09:09:58.315Z,12.79
2023-04-20T09:12:25.512Z,12.12
2023-04-20T09:14:53.463Z,12.35
2023-04-20T09:17:41.548Z,11.22
2023-04-20T09:20:08.962Z,11.76
2023-04-20T09:22:37.015Z,11.64
2023-04-20T09:25:17.441Z,12.64
2023-04-20T09:27:44.188Z,12.01
2023-04-20T09:30:11.878Z,11.83
2023-04-20T09:32:38.971Z,12.76
2023-04-20T09:35:08.201Z,11.74
2023-04-20T09:37:37.546Z,11.34
2023-04-20T09:40:06.328Z,11.96
2023-04-20T09:42:37.423Z,10.69
2023-04-20T09:45:04.806Z,11.50
2023-04-20T09:47:37.010Z,11.06
2023-04-20T09:50:19.517Z,10.53
2023-04-20T09:52:52.623Z,10.97
2023-04-20T09:55:19.539Z,10.67
2023-04-20T09:57:47.033Z,11.10
2023-04-20T10:00:14.396Z,10.99
2023-04-20T10:02:41.453Z,11.07
2023-04-20T10:05:08.903Z,11.03
2023-04-20T10:07:35.744Z,11.18
2023-04-20T10:10:16.319Z,11.01
2023-04-20T10:12:57.512Z,11.51
2023-04-20T10:15:36.465Z,11.23
2023-04-20T10:18:03.508Z,11.03
2023-04-20T10:20:30.715Z,11.09
2023-04-20T10:23:16.714Z,11.28
2023-04-20T10:25:45.563Z,11.11
2023-04-20T10:28:12.401Z,11.23
2023-04-20T10:30:50.787Z,11.42
2023-04-20T10:33:18.319Z,11.57
2023-04-20T10:35:55.224Z,11.79
2023-04-20T10:38:29.199Z,12.45
2023-04-20T10:40:56.236Z,11.95
2023-04-20T10:43:23.363Z,12.31
2023-04-20T10:45:50.852Z,12.04
2023-04-20T10:48:18.448Z,12.05
2023-04-20T10:50:45.658Z,13.14
2023-04-20T10:53:20.892Z,12.40
2023-04-20T10:55:48.323Z,12.68
2023-04-20T10:58:22.843Z,12.93
2023-04-20T11:01:04.860Z,12.05
2023-04-20T11:03:34.614Z,12.18
2023-04-20T11:06:02.744Z,12.27
2023-04-20T11:08:40.130Z,12.32
2023-04-20T11:11:18.582Z,12.60
2023-04-20T11:13:45.338Z,11.98
2023-04-20T11:16:20.063Z,11.99
2023-04-20T11:18:55.263Z,12.09
2023-04-20T11:21:22.791Z,12.30
2023-04-20T11:23:57.468Z,12.41
2023-04-20T11:26:35.527Z,11.99
2023-04-20T11:29:04.121Z,12.20
2023-04-20T11:31:31.161Z,12.11
2023-04-20T11:33:58.742Z,11.75
2023-04-20T11:36:28.728Z,11.82
2023-04-20T11:38:56.253Z,11.76
2023-04-20T11:41:23.454Z,11.96
2023-04-20T11:43:51.525Z,11.82
2023-04-20T11:46:21.680Z,12.42
2023-04-20T11:48:49.273Z,12.20
2023-04-20T11:51:16.170Z,12.88
2023-04-20T11:53:43.105Z,13.25
2023-04-20T11:56:09.979Z,13.89
2023-04-20T11:58:37.073Z,14.04
2023-04-20T12:01:05.680Z,14.61
2023-04-20T12:03:32.945Z,13.04
2023-04-20T12:05:59.927Z,12.93
2023-04-20T12:08:26.806Z,12.30
2023-04-20T12:10:53.533Z,12.02
2023-04-20T12:13:20.341Z,11.98
2023-04-20T12:15:47.409Z,11.97
2023-04-20T12:18:14.274Z,12.02
2023-04-20T12:20:41.138Z,12.11
2023-04-20T12:23:07.962Z,12.01
2023-04-20T12:25:34.800Z,11.78
2023-04-20T12:28:06.890Z,11.69
2023-04-20T12:30:35.589Z,12.07
2023-04-20T12:33:04.240Z,12.00
2023-04-20T12:35:31.220Z,11.92
2023-04-20T12:37:58.088Z,11.91
2023-04-20T12:40:25.213Z,11.83
2023-04-20T12:42:52.278Z,11.53
2023-04-20T12:45:19.459Z,11.59
2023-04-20T12:47:46.264Z,11.15
2023-04-20T12:50:13.092Z,11.09
2023-04-20T12:52:40.054Z,10.75
2023-04-20T12:55:08.221Z,10.75
2023-04-20T12:57:35.155Z,10.84
2023-04-20T13:00:06.335Z,10.56
2023-04-20T13:02:33.752Z,10.27
2023-04-20T13:05:00.791Z,10.34
2023-04-20T13:07:31.806Z,10.31
2023-04-20T13:10:02.038Z,10.14
2023-04-20T13:12:28.918Z,10.36
2023-04-20T13:14:56.154Z,10.00
2023-04-20T13:17:23.218Z,10.08
2023-04-20T13:19:50.680Z,9.88
2023-04-20T13:22:18.772Z,9.94
2023-04-20T13:24:46.244Z,10.05
2023-04-20T13:27:14.448Z,9.97
2023-04-20T13:29:41.662Z,10.02
2023-04-20T13:32:08.473Z,9.98
2023-04-20T13:34:35.416Z,9.89
2023-04-20T13:37:03.087Z,9.98
2023-04-20T13:39:30.336Z,10.04
2023-04-20T13:41:57.254Z,9.94
2023-04-20T13:44:24.150Z,10.12
2023-04-20T13:46:50.995Z,10.09
2023-04-20T13:49:17.757Z,10.20
2023-04-20T13:51:44.618Z,10.04
2023-04-20T13:54:11.444Z,9.92
2023-04-20T13:56:38.236Z,9.66
2023-04-20T13:59:05.002Z,9.77
2023-04-20T14:01:32.043Z,9.90
2023-04-20T14:03:59.412Z,9.90
2023-04-20T14:06:27.850Z,9.73
2023-04-20T14:08:54.760Z,9.89
2023-04-20T14:11:21.732Z,9.82
2023-04-20T14:13:48.794Z,9.68
2023-04-20T14:16:15.961Z,9.67
2023-04-20T14:18:42.919Z,9.80
2023-04-20T14:21:09.777Z,9.63
2023-04-20T14:23:36.671Z,9.72
2023-04-20T14:26:04.228Z,9.56
2023-04-20T14:28:33.484Z,9.54
2023-04-20T14:31:02.084Z,9.43
2023-04-20T14:33:29.382Z,9.55
2023-04-20T14:35:56.330Z,9.63
2023-04-20T14:38:25.580Z,9.70
2023-04-20T14:40:53.071Z,9.78
2023-04-20T14:43:20.044Z,9.70
2023-04-20T14:45:47.064Z,9.72
2023-04-20T14:48:13.950Z,9.67
2023-04-20T14:50:40.808Z,9.80
2023-04-20T14:53:07.601Z,10.20
2023-04-20T14:55:34.470Z,10.46
2023-04-20T14:58:01.232Z,10.46
2023-04-20T15:00:28.541Z,10.55
2023-04-20T15:02:57.046Z,10.28
2023-04-20T15:05:26.173Z,10.46
2023-04-20T15:07:57.268Z,10.31
2023-04-20T15:10:24.709Z,10.26
2023-04-20T15:12:51.557Z,10.39
2023-04-20T15:15:18.569Z,10.60
2023-04-20T15:17:49.298Z,10.55
2023-04-20T15:20:19.112Z,10.44
2023-04-20T15:22:46.389Z,10.67
2023-04-20T15:25:16.052Z,10.37
2023-04-20T15:27:42.907Z,10.57
2023-04-20T15:30:10.197Z,10.58
2023-04-20T15:32:37.128Z,10.80
2023-04-20T15:35:04.108Z,10.68
2023-04-20T15:37:30.910Z,10.61
2023-04-20T15:39:59.395Z,10.60
2023-04-20T15:42:27.776Z,10.64
2023-04-20T15:44:54.596Z,10.30
2023-04-20T15:47:21.468Z,10.48
2023-04-20T15:49:48.348Z,10.40
2023-04-20T15:52:15.098Z,10.34
2023-04-20T15:54:41.957Z,10.17
2023-04-20T15:57:08.705Z,10.22
2023-04-20T15:59:36.485Z,10.20
2023-04-20T16:02:03.346Z,10.17
2023-04-20T16:04:31.900Z,10.02
2023-04-20T16:06:58.960Z,10.03
2023-04-20T16:09:25.853Z,9.99
2023-04-20T16:11:52.671Z,9.86
2023-04-20T16:14:19.719Z,9.92
2023-04-20T16:16:46.749Z,10.01
2023-04-20T16:19:14.818Z,9.97
2023-04-20T16:21:41.577Z,9.92
2023-04-20T16:24:08.627Z,9.95
2023-04-20T16:26:35.402Z,9.91
2023-04-20T16:29:02.439Z,9.87
2023-04-20T16:31:29.881Z,9.77
2023-04-20T16:33:59.191Z,9.70
2023-04-20T16:36:26.954Z,9.71
2023-04-20T16:38:54.042Z,9.77
2023-04-20T16:41:21.056Z,9.73
2023-04-20T16:43:48.016Z,9.79
2023-04-20T16:46:16.625Z,9.76
2023-04-20T16:48:43.508Z,9.75
2023-04-20T16:51:10.317Z,9.72
2023-04-20T16:53:37.177Z,9.73
2023-04-20T16:56:04.005Z,9.69
2023-04-20T16:58:30.793Z,9.67
2023-04-20T17:00:57.608Z,9.60
2023-04-20T17:03:24.759Z,9.57
2023-04-20T17:05:51.732Z,9.57
2023-04-20T17:08:19.190Z,9.40
2023-04-20T17:10:46.074Z,9.30
2023-04-20T17:13:12.911Z,9.25
2023-04-20T17:15:42.910Z,9.23
2023-04-20T17:18:09.940Z,9.18
2023-04-20T17:20:36.827Z,9.10
2023-04-20T17:23:03.778Z,9.06
2023-04-20T17:25:30.739Z,9.13
2023-04-20T17:27:57.443Z,9.18
2023-04-20T17:30:24.293Z,9.10
2023-04-20T17:32:53.355Z,9.13
2023-04-20T17:35:20.165Z,9.12
2023-04-20T17:37:47.041Z,9.06
2023-04-20T17:40:14.103Z,9.10
2023-04-20T17:42:41.043Z,9.13
2023-04-20T17:45:12.051Z,9.09
2023-04-20T17:47:39.008Z,9.03
2023-04-20T17:50:06.626Z,9.01
2023-04-20T17:52:33.440Z,9.01
2023-04-20T17:55:00.552Z,8.96
2023-04-20T17:57:27.778Z,9.04
2023-04-20T17:59:54.640Z,9.10
2023-04-20T18:02:21.630Z,9.10
2023-04-20T18:04:48.602Z,9.08
2023-04-20T18:07:17.163Z,9.06
2023-04-20T18:09:44.048Z,9.00
2023-04-20T18:12:11.609Z,9.05
2023-04-20T18:14:40.488Z,8.98
2023-04-20T18:17:07.493Z,9.05
2023-04-20T18:19:34.449Z,9.05
2023-04-20T18:22:01.479Z,9.08
2023-04-20T18:24:28.834Z,9.01
2023-04-20T18:26:55.617Z,9.01
2023-04-20T18:29:22.664Z,9.15
2023-04-20T18:31:50.582Z,9.07
2023-04-20T18:34:18.090Z,9.13
2023-04-20T18:36:45.094Z,9.12
2023-04-20T18:39:11.995Z,9.16
2023-04-20T18:41:39.114Z,9.17
2023-04-20T18:44:07.290Z,9.18
2023-04-20T18:46:34.509Z,9.15
2023-04-20T18:49:01.584Z,9.11
2023-04-20T18:51:28.843Z,9.09
2023-04-20T18:53:55.666Z,9.16
2023-04-20T18:56:22.414Z,9.15
2023-04-20T18:58:49.697Z,9.08
2023-04-20T19:01:17.229Z,9.02
2023-04-20T19:03:47.082Z,9.10
2023-04-20T19:06:14.709Z,9.12
2023-04-20T19:08:41.429Z,9.11
2023-04-20T19:11:08.208Z,9.15
2023-04-20T19:13:35.308Z,9.20
2023-04-20T19:16:02.191Z,9.23
2023-04-20T19:18:29.079Z,9.22
2023-04-20T19:20:55.871Z,9.21
2023-04-20T19:23:22.660Z,9.21
2023-04-20T19:25:49.418Z,9.24
2023-04-20T19:28:16.385Z,9.23
2023-04-20T19:30:43.147Z,9.17
2023-04-20T19:33:10.215Z,9.11
2023-04-20T19:35:37.107Z,9.10
2023-04-20T19:38:04.217Z,9.07
2023-04-20T19:40:31.032Z,9.01
2023-04-20T19:42:57.730Z,8.96
2023-04-20T19:45:24.591Z,8.90
2023-04-20T19:47:52.071Z,8.82
2023-04-20T19:50:19.242Z,8.72
2023-04-20T19:52:46.068Z,8.69
2023-04-20T19:55:12.853Z,8.61
2023-04-20T19:57:39.636Z,8.71
2023-04-20T20:00:08.781Z,8.65
2023-04-20T20:02:36.432Z,8.53
2023-04-20T20:05:03.809Z,8.41
2023-04-20T20:07:30.689Z,8.32
2023-04-20T20:09:57.732Z,8.25
2023-04-20T20:12:24.468Z,8.10
2023-04-20T20:14:51.444Z,8.03
2023-04-20T20:17:19.698Z,7.97
2023-04-20T20:19:46.670Z,7.84
2023-04-20T20:22:13.582Z,7.84
2023-04-20T20:24:40.486Z,7.82
2023-04-20T20:27:07.331Z,7.78
2023-04-20T20:29:35.107Z,7.65
2023-04-20T20:32:02.001Z,7.63
2023-04-20T20:34:28.811Z,7.65
2023-04-20T20:36:55.541Z,7.64
2023-04-20T20:39:23.485Z,7.54
2023-04-20T20:41:51.556Z,7.52
2023-04-20T20:44:18.978Z,7.40
2023-04-20T20:46:46.191Z,7.39
2023-04-20T20:49:13.119Z,7.26
2023-04-20T20:51:39.868Z,7.33
2023-04-20T20:54:06.682Z,7.28
2023-04-20T20:56:33.394Z,7.17
2023-04-20T20:59:00.248Z,7.09
2023-04-20T21:01:27.152Z,7.05
2023-04-20T21:03:54.372Z,6.99
2023-04-20T21:06:21.530Z,7.04
2023-04-20T21:08:49.003Z,7.06
2023-04-20T21:11:16.004Z,6.96
2023-04-20T21:13:42.730Z,7.00
2023-04-20T21:16:09.664Z,6.95
2023-04-20T21:18:36.578Z,6.98
2023-04-20T21:21:03.373Z,6.98
2023-04-20T21:23:30.145Z,6.99
2023-04-20T21:25:57.057Z,6.97
2023-04-20T21:28:23.863Z,6.96
2023-04-20T21:30:50.723Z,7.03
2023-04-20T21:33:17.480Z,6.99
2023-04-20T21:35:44.298Z,6.95
2023-04-20T21:38:11.021Z,7.00
2023-04-20T21:40:37.765Z,6.98
2023-04-20T21:43:04.532Z,7.02
2023-04-20T21:45:31.345Z,6.91
2023-04-20T21:47:58.249Z,6.90
2023-04-20T21:50:27.259Z,6.88
2023-04-20T21:52:55.068Z,7.01
2023-04-20T21:55:21.977Z,6.99
2023-04-20T21:57:48.760Z,6.93
2023-04-20T22:00:15.892Z,6.93
2023-04-20T22:02:42.923Z,6.98
2023-04-20T22:05:10.508Z,7.00
2023-04-20T22:07:40.585Z,6.91
2023-04-20T22:10:07.995Z,6.95
2023-04-20T22:12:40.412Z,6.98
2023-04-20T22:15:12.512Z,7.00
2023-04-20T22:17:40.920Z,7.03
2023-04-20T22:20:10.583Z,6.99
2023-04-20T22:22:38.596Z,7.06
2023-04-20T22:25:07.470Z,7.03
2023-04-20T22:27:35.299Z,7.01
2023-04-20T22:30:02.331Z,7.05
2023-04-20T22:32:29.168Z,7.09
2023-04-20T22:34:56.234Z,7.15
2023-04-20T22:37:23.081Z,7.08
2023-04-20T22:39:50.111Z,6.98
2023-04-20T22:42:16.890Z,7.01
2023-04-20T22:44:43.720Z,7.05
2023-04-20T22:47:10.521Z,7.14
2023-04-20T22:49:37.832Z,7.20
2023-04-20T22:52:04.769Z,7.23
2023-04-20T22:54:31.571Z,7.39
2023-04-20T22:56:58.962Z,7.32
2023-04-20T22:59:25.792Z,7.23
2023-04-20T23:01:52.618Z,7.31
2023-04-20T23:04:19.450Z,7.34
2023-04-20T23:06:47.402Z,7.29
2023-04-20T23:09:17.524Z,7.28
2023-04-20T23:11:47.347Z,7.32
2023-04-20T23:14:14.415Z,7.22
2023-04-20T23:16:41.402Z,7.14
2023-04-20T23:19:08.615Z,7.16
2023-04-20T23:21:35.447Z,7.11
2023-04-20T23:24:02.308Z,7.13
2023-04-20T23:26:29.138Z,7.11
2023-04-20T23:28:56.043Z,7.10
2023-04-20T23:31:22.956Z,7.12
2023-04-20T23:33:49.989Z,7.24
2023-04-20T23:36:16.866Z,7.14
2023-04-20T23:38:44.092Z,7.12
2023-04-20T23:41:15.401Z,7.14
2023-04-20T23:43:42.779Z,7.26
2023-04-20T23:46:09.615Z,7.30
2023-04-20T23:48:36.451Z,7.34
2023-04-20T23:51:03.318Z,7.37
2023-04-20T23:53:30.109Z,7.47
2023-04-20T23:55:56.926Z,7.47
2023-04-20T23:58:27.693Z,7.42
